Time;durP1;ratioP1;P1;durP2;ratioP2;P2;SDS_P1;SDS_P2;PMS_P1;PMS_P2;Temp;Humidity;BMP_temperature;BMP_pressure;BME280_temperature;BME280_humidity;BME280_pressure;Samples;Min_cycle;Max_cycle;Signal;HPM_P1;HPM_P2
2022/06/15 00:02:10;;;;;;;;;6.00;4.67;;;;;;;;5018965;28;45375;-70
2022/06/15 00:04:35;;;;;;;;;5.67;4.67;;;;;;;;5013684;28;45379;-69
2022/06/15 00:07:01;;;;;;;;;6.33;5.00;;;;;;;;5019444;28;45463;-70
2022/06/15 00:09:26;;;;;;;;;4.67;4.67;;;;;;;;5009083;28;45455;-69
2022/06/15 00:11:51;;;;;;;;;4.00;4.00;;;;;;;;5020223;28;45561;-69
2022/06/15 00:14:22;;;;;;;;;4.00;4.00;;;;;;;;5012997;28;45488;-70
2022/06/15 00:16:47;;;;;;;;;5.33;5.33;;;;;;;;5020013;28;46574;-69
2022/06/15 00:19:12;;;;;;;;;3.33;3.33;;;;;;;;5017727;28;45396;-69
2022/06/15 00:21:37;;;;;;;;;8.33;6.00;;;;;;;;5018669;28;45193;-70
2022/06/15 00:24:03;;;;;;;;;4.00;4.00;;;;;;;;5017376;28;45503;-70
2022/06/15 00:26:28;;;;;;;;;6.00;4.67;;;;;;;;5019850;28;45383;-69
2022/06/15 00:28:53;;;;;;;;;4.67;4.67;;;;;;;;5017818;28;47797;-69
2022/06/15 00:31:19;;;;;;;;;6.33;5.00;;;;;;;;5019703;28;45221;-69
2022/06/15 00:33:45;;;;;;;;;6.33;5.33;;;;;;;;5015661;28;45458;-69
2022/06/15 00:36:12;;;;;;;;;3.67;3.67;;;;;;;;5019130;28;45381;-70
2022/06/15 00:38:44;;;;;;;;;4.33;4.33;;;;;;;;5012112;28;46220;-70
2022/06/15 00:41:14;;;;;;;;;7.33;4.67;;;;;;;;5019841;28;46608;-69
2022/06/15 00:43:41;;;;;;;;;4.00;4.00;;;;;;;;5016636;28;45444;-69
2022/06/15 00:46:25;;;;;;;;;6.67;4.67;;;;;;;;5016128;28;45257;-69
2022/06/15 00:48:53;;;;;;;;;5.33;5.33;;;;;;;;5015444;28;45410;-68
2022/06/15 00:51:19;;;;;;;;;6.33;5.33;;;;;;;;5019333;28;45169;-70
2022/06/15 00:53:44;;;;;;;;;4.33;4.33;;;;;;;;5009562;28;45368;-68
2022/06/15 00:56:10;;;;;;;;;4.67;4.67;;;;;;;;5018155;28;45900;-69
2022/06/15 00:58:37;;;;;;;;;4.00;4.00;;;;;;;;5013668;28;46185;-69
2022/06/15 01:01:03;;;;;;;;;5.00;5.00;;;;;;;;5016971;28;45371;-69
2022/06/15 01:03:28;;;;;;;;;4.00;4.00;;;;;;;;5013953;28;45441;-70
2022/06/15 01:06:14;;;;;;;;;3.33;3.33;;;;;;;;5015514;28;45262;-70
2022/06/15 01:08:46;;;;;;;;;7.33;6.00;;;;;;;;5012466;28;46495;-69
2022/06/15 01:11:11;;;;;;;;;6.33;4.00;;;;;;;;5018476;28;45391;-70
2022/06/15 01:13:42;;;;;;;;;4.00;4.00;;;;;;;;5016536;28;45300;-70
2022/06/15 01:16:26;;;;;;;;;5.67;5.33;;;;;;;;5018119;28;45227;-69
2022/06/15 01:18:51;;;;;;;;;8.00;6.00;;;;;;;;5016150;28;45421;-70
2022/06/15 01:21:19;;;;;;;;;7.00;5.33;;;;;;;;5018709;28;45339;-69
2022/06/15 01:24:05;;;;;;;;;5.00;5.00;;;;;;;;5015447;28;45590;-69
2022/06/15 01:26:49;;;;;;;;;6.00;5.33;;;;;;;;5018883;28;45641;-69
2022/06/15 01:29:15;;;;;;;;;5.00;5.00;;;;;;;;5014333;28;45407;-68
2022/06/15 01:31:43;;;;;;;;;3.67;3.67;;;;;;;;5018912;28;45432;-69
2022/06/15 01:34:35;;;;;;;;;4.00;4.00;;;;;;;;5017129;28;45396;-69
2022/06/15 01:37:09;;;;;;;;;5.67;5.67;;;;;;;;5017167;28;45387;-69
2022/06/15 01:39:56;;;;;;;;;6.67;4.67;;;;;;;;5016479;28;47504;-69
2022/06/15 01:42:28;;;;;;;;;5.67;5.67;;;;;;;;5005900;28;45361;-70
2022/06/15 01:44:56;;;;;;;;;6.33;6.33;;;;;;;;5011590;28;45446;-70
2022/06/15 01:47:23;;;;;;;;;6.33;6.33;;;;;;;;5015635;28;45756;-69
2022/06/15 01:49:50;;;;;;;;;5.67;5.67;;;;;;;;5016330;28;45939;-70
2022/06/15 01:52:17;;;;;;;;;4.67;4.67;;;;;;;;5015182;28;46799;-69
2022/06/15 01:54:47;;;;;;;;;7.33;6.33;;;;;;;;5018725;28;45455;-69
2022/06/15 01:57:14;;;;;;;;;5.00;5.00;;;;;;;;5019903;28;45490;-69
2022/06/15 01:59:42;;;;;;;;;5.67;5.67;;;;;;;;5010029;28;45368;-70
2022/06/15 02:02:32;;;;;;;;;7.00;5.67;;;;;;;;5017658;28;45174;-69
2022/06/15 02:05:00;;;;;;;;;7.67;6.33;;;;;;;;5014356;28;45288;-70
2022/06/15 02:07:29;;;;;;;;;5.00;5.00;;;;;;;;5016110;28;45782;-70
2022/06/15 02:10:05;;;;;;;;;5.00;4.67;;;;;;;;5020351;28;47489;-69
2022/06/15 02:12:37;;;;;;;;;6.67;5.67;;;;;;;;5020051;28;45632;-70
2022/06/15 02:15:04;;;;;;;;;6.00;6.00;;;;;;;;5014754;28;45253;-70
2022/06/15 02:17:32;;;;;;;;;5.00;5.00;;;;;;;;5017926;28;45469;-69
2022/06/15 02:20:00;;;;;;;;;7.00;7.00;;;;;;;;5018329;28;46400;-70
2022/06/15 02:22:28;;;;;;;;;8.00;6.00;;;;;;;;5019745;28;45301;-70
2022/06/15 02:24:55;;;;;;;;;6.00;5.00;;;;;;;;5017527;28;45269;-69
2022/06/15 02:27:22;;;;;;;;;6.00;5.33;;;;;;;;5019756;28;45843;-70
2022/06/15 02:29:50;;;;;;;;;7.00;6.00;;;;;;;;5020231;28;48063;-70
2022/06/15 02:32:17;;;;;;;;;5.33;5.00;;;;;;;;5019909;28;45690;-70
2022/06/15 02:34:42;;;;;;;;;6.67;6.67;;;;;;;;5020585;28;45304;-70
2022/06/15 02:37:08;;;;;;;;;6.33;6.33;;;;;;;;5021099;28;45461;-70
2022/06/15 02:39:33;;;;;;;;;6.33;5.00;;;;;;;;5014258;28;45411;-69
2022/06/15 02:42:18;;;;;;;;;5.00;5.00;;;;;;;;5021457;28;45162;-70
2022/06/15 02:44:44;;;;;;;;;6.33;6.33;;;;;;;;5007586;28;45408;-69
2022/06/15 02:47:09;;;;;;;;;10.00;7.00;;;;;;;;5020444;28;45175;-70
2022/06/15 02:49:34;;;;;;;;;6.00;5.00;;;;;;;;5019390;28;46311;-69
2022/06/15 02:52:03;;;;;;;;;8.33;5.33;;;;;;;;5020076;28;45272;-70
2022/06/15 02:54:34;;;;;;;;;7.00;6.67;;;;;;;;5014619;28;45299;-69
2022/06/15 02:57:00;;;;;;;;;5.50;5.50;;;;;;;;5021329;28;45626;-69
2022/06/15 02:59:26;;;;;;;;;6.33;6.33;;;;;;;;5019837;28;47059;-68
2022/06/15 03:01:51;;;;;;;;;6.00;6.00;;;;;;;;5021046;28;45336;-69
2022/06/15 03:04:16;;;;;;;;;5.00;5.00;;;;;;;;5011556;28;46020;-69
2022/06/15 03:06:42;;;;;;;;;5.67;5.67;;;;;;;;5009838;28;47000;-69
2022/06/15 03:09:07;;;;;;;;;8.00;6.00;;;;;;;;5013048;28;45436;-69
2022/06/15 03:11:32;;;;;;;;;7.00;6.00;;;;;;;;5019881;28;45406;-69
2022/06/15 03:13:58;;;;;;;;;6.00;6.00;;;;;;;;5014892;28;45251;-68
2022/06/15 03:16:23;;;;;;;;;3.00;3.00;;;;;;;;5020763;28;45502;-68
2022/06/15 03:18:49;;;;;;;;;7.67;6.00;;;;;;;;5016429;28;45439;-69
2022/06/15 03:21:14;;;;;;;;;6.00;6.00;;;;;;;;5020682;28;45362;-69
2022/06/15 03:23:39;;;;;;;;;7.00;6.00;;;;;;;;5019060;28;45517;-69
2022/06/15 03:26:05;;;;;;;;;8.00;7.00;;;;;;;;5019696;28;45823;-69
2022/06/15 03:28:30;;;;;;;;;9.00;9.00;;;;;;;;5016184;28;45455;-69
2022/06/15 03:30:56;;;;;;;;;8.00;8.00;;;;;;;;5019526;28;45313;-69
2022/06/15 03:33:21;;;;;;;;;7.67;6.33;;;;;;;;5018393;28;45392;-69
2022/06/15 03:35:47;;;;;;;;;9.00;6.00;;;;;;;;5019961;28;45453;-69
2022/06/15 03:38:12;;;;;;;;;6.00;6.00;;;;;;;;5016678;28;46166;-69
2022/06/15 03:40:39;;;;;;;;;8.00;8.00;;;;;;;;5019374;28;45737;-69
2022/06/15 03:43:05;;;;;;;;;6.67;4.67;;;;;;;;5015537;28;45305;-69
2022/06/15 03:45:30;;;;;;;;;7.00;7.00;;;;;;;;5018440;28;45531;-69
2022/06/15 03:47:55;;;;;;;;;7.00;7.00;;;;;;;;5018021;28;45375;-70
2022/06/15 03:50:22;;;;;;;;;6.67;6.67;;;;;;;;5020730;28;45336;-70
2022/06/15 03:52:47;;;;;;;;;6.33;6.33;;;;;;;;5017919;28;45336;-70
2022/06/15 03:55:13;;;;;;;;;8.67;7.67;;;;;;;;5019385;28;47109;-70
2022/06/15 03:57:38;;;;;;;;;10.00;7.33;;;;;;;;5017536;28;46024;-70
2022/06/15 04:00:04;;;;;;;;;9.00;7.67;;;;;;;;5012443;28;45503;-69
2022/06/15 04:02:29;;;;;;;;;7.00;5.00;;;;;;;;5019108;28;45290;-69
2022/06/15 04:04:54;;;;;;;;;10.00;8.00;;;;;;;;5019769;28;45349;-70
2022/06/15 04:10:04;;;;;;;;;7.00;7.00;;;;;;;;5019731;28;45331;-69
2022/06/15 04:12:29;;;;;;;;;9.00;8.00;;;;;;;;5018199;28;45328;-69
2022/06/15 04:14:54;;;;;;;;;8.00;8.00;;;;;;;;5018401;28;45882;-68
2022/06/15 04:17:19;;;;;;;;;8.00;7.00;;;;;;;;5018375;28;46364;-68
2022/06/15 04:20:31;;;;;;;;;6.33;6.00;;;;;;;;5016227;28;45391;-68
2022/06/15 04:22:30;;;;;;;;;7.33;7.33;;;;;;;;5016867;28;45718;-68
2022/06/15 04:24:55;;;;;;;;;7.00;7.00;;;;;;;;5014309;28;45594;-68
2022/06/15 04:27:20;;;;;;;;;8.00;8.00;;;;;;;;5017468;28;45328;-68
2022/06/15 04:29:45;;;;;;;;;6.67;6.67;;;;;;;;5013652;28;45413;-69
2022/06/15 04:32:11;;;;;;;;;8.00;8.00;;;;;;;;5018860;28;45275;-69
2022/06/15 04:34:36;;;;;;;;;9.00;6.00;;;;;;;;5014242;28;45450;-69
2022/06/15 04:37:03;;;;;;;;;9.67;8.33;;;;;;;;5019166;28;45490;-69
2022/06/15 04:39:29;;;;;;;;;9.67;8.33;;;;;;;;5016316;28;45450;-68
2022/06/15 04:41:54;;;;;;;;;11.67;8.33;;;;;;;;5019157;28;45420;-68
2022/06/15 04:44:19;;;;;;;;;7.67;6.67;;;;;;;;5013899;28;45359;-68
2022/06/15 04:46:44;;;;;;;;;9.33;8.33;;;;;;;;5018063;28;46270;-68
2022/06/15 04:49:09;;;;;;;;;7.67;6.00;;;;;;;;5017656;28;45366;-69
2022/06/15 04:51:38;;;;;;;;;8.00;6.67;;;;;;;;5018059;28;45367;-69
2022/06/15 04:54:09;;;;;;;;;9.67;6.67;;;;;;;;5004746;28;45578;-70
2022/06/15 04:56:34;;;;;;;;;8.00;6.67;;;;;;;;5019176;28;45315;-69
2022/06/15 04:59:00;;;;;;;;;8.33;7.67;;;;;;;;5009874;28;45370;-69
2022/06/15 05:01:25;;;;;;;;;11.67;8.00;;;;;;;;5018216;28;45430;-69
2022/06/15 05:03:50;;;;;;;;;8.67;7.33;;;;;;;;5016987;28;45514;-69
2022/06/15 05:06:22;;;;;;;;;11.00;8.67;;;;;;;;5018685;28;46392;-70
2022/06/15 05:08:47;;;;;;;;;8.00;8.00;;;;;;;;5016035;28;45506;-70
2022/06/15 05:11:12;;;;;;;;;7.00;7.00;;;;;;;;5006815;28;45250;-69
2022/06/15 05:13:37;;;;;;;;;9.00;7.33;;;;;;;;5010300;28;46849;-70
2022/06/15 05:16:02;;;;;;;;;7.33;7.00;;;;;;;;5018018;28;45403;-70
2022/06/15 05:18:28;;;;;;;;;9.33;8.00;;;;;;;;5013002;28;45288;-70
2022/06/15 05:20:53;;;;;;;;;11.33;10.00;;;;;;;;5018918;28;45526;-70
2022/06/15 05:23:19;;;;;;;;;11.00;9.33;;;;;;;;5012322;28;45359;-71
2022/06/15 05:25:44;;;;;;;;;6.67;4.67;;;;;;;;5017140;28;46301;-71
2022/06/15 05:28:12;;;;;;;;;9.00;9.00;;;;;;;;5012338;28;45393;-71
2022/06/15 05:30:37;;;;;;;;;8.00;7.33;;;;;;;;5018523;28;45484;-71
2022/06/15 05:33:03;;;;;;;;;10.33;9.00;;;;;;;;5012754;28;45479;-71
2022/06/15 05:35:28;;;;;;;;;11.00;10.00;;;;;;;;5017913;28;46305;-71
2022/06/15 05:37:54;;;;;;;;;11.00;8.67;;;;;;;;5014776;28;45745;-70
2022/06/15 05:40:19;;;;;;;;;8.67;8.67;;;;;;;;5017427;28;45406;-70
2022/06/15 05:42:44;;;;;;;;;8.67;7.67;;;;;;;;5014598;28;46602;-68
2022/06/15 05:45:10;;;;;;;;;8.33;8.33;;;;;;;;5013245;28;45564;-68
2022/06/15 05:47:35;;;;;;;;;9.33;9.00;;;;;;;;5016127;28;45284;-70
2022/06/15 05:50:00;;;;;;;;;11.00;10.00;;;;;;;;5017057;28;45328;-68
2022/06/15 05:52:26;;;;;;;;;10.67;10.00;;;;;;;;5016950;28;45279;-68
2022/06/15 05:54:51;;;;;;;;;11.00;10.00;;;;;;;;5006042;28;45345;-69
2022/06/15 05:57:20;;;;;;;;;11.67;9.67;;;;;;;;5017196;28;45689;-70
2022/06/15 05:59:46;;;;;;;;;12.33;8.67;;;;;;;;5008510;28;45458;-69
2022/06/15 06:02:12;;;;;;;;;9.33;7.67;;;;;;;;5016148;28;46061;-69
2022/06/15 06:04:37;;;;;;;;;10.00;7.67;;;;;;;;5017259;28;45335;-68
2022/06/15 06:07:03;;;;;;;;;11.00;9.00;;;;;;;;5018658;28;45404;-68
2022/06/15 06:09:28;;;;;;;;;10.00;10.00;;;;;;;;5015214;28;45522;-69
2022/06/15 06:11:54;;;;;;;;;10.33;8.00;;;;;;;;5017231;28;45277;-69
2022/06/15 06:14:19;;;;;;;;;8.33;4.67;;;;;;;;5014436;28;45427;-68
2022/06/15 06:16:44;;;;;;;;;10.00;8.67;;;;;;;;5016842;28;45399;-69
2022/06/15 06:19:09;;;;;;;;;8.67;8.67;;;;;;;;5014086;28;45340;-69
2022/06/15 06:21:35;;;;;;;;;12.33;8.67;;;;;;;;5017998;28;45366;-69
2022/06/15 06:24:00;;;;;;;;;13.67;9.67;;;;;;;;5012820;28;45466;-69
2022/06/15 06:26:26;;;;;;;;;8.00;7.00;;;;;;;;5017166;28;45439;-70
2022/06/15 06:28:52;;;;;;;;;10.67;8.00;;;;;;;;5012198;28;45483;-69
2022/06/15 06:31:19;;;;;;;;;15.00;11.00;;;;;;;;5017718;28;45383;-69
2022/06/15 06:33:45;;;;;;;;;12.67;9.33;;;;;;;;5011332;28;46009;-69
2022/06/15 06:36:16;;;;;;;;;18.33;14.00;;;;;;;;5004079;28;45222;-80
2022/06/15 06:38:42;;;;;;;;;13.00;12.00;;;;;;;;5010824;28;45253;-70
2022/06/15 06:41:08;;;;;;;;;12.00;12.00;;;;;;;;5006025;28;46714;-70
2022/06/15 06:43:34;;;;;;;;;14.67;11.67;;;;;;;;5004466;28;46188;-70
2022/06/15 06:45:59;;;;;;;;;11.00;10.00;;;;;;;;5004337;28;45503;-70
2022/06/15 06:48:24;;;;;;;;;8.33;8.33;;;;;;;;5002971;28;45590;-70
2022/06/15 06:50:51;;;;;;;;;9.00;9.00;;;;;;;;5012131;28;45549;-70
2022/06/15 06:53:16;;;;;;;;;13.00;10.33;;;;;;;;5008696;28;48311;-70
2022/06/15 06:55:41;;;;;;;;;15.33;11.67;;;;;;;;5020948;28;45431;-70
2022/06/15 06:58:06;;;;;;;;;9.33;8.00;;;;;;;;5007526;28;45526;-70
2022/06/15 07:00:33;;;;;;;;;9.00;8.00;;;;;;;;5020104;28;45423;-70
2022/06/15 07:03:01;;;;;;;;;13.00;10.50;;;;;;;;5008045;28;45444;-70
2022/06/15 07:05:27;;;;;;;;;9.33;9.33;;;;;;;;5017621;28;45376;-70
2022/06/15 07:07:53;;;;;;;;;15.67;12.00;;;;;;;;5008154;28;45310;-70
2022/06/15 07:10:18;;;;;;;;;13.00;11.00;;;;;;;;5016446;28;45306;-70
2022/06/15 07:12:43;;;;;;;;;12.00;11.00;;;;;;;;5003459;28;46148;-68
2022/06/15 07:15:10;;;;;;;;;11.67;7.67;;;;;;;;5016196;28;45267;-71
2022/06/15 07:17:35;;;;;;;;;13.67;12.67;;;;;;;;5005652;28;45197;-68
2022/06/15 07:20:01;;;;;;;;;12.00;9.00;;;;;;;;5012088;28;45281;-68
2022/06/15 07:22:26;;;;;;;;;11.00;9.00;;;;;;;;5005899;28;46499;-68
2022/06/15 07:24:51;;;;;;;;;10.33;8.33;;;;;;;;5013572;28;45447;-69
2022/06/15 07:27:17;;;;;;;;;9.50;8.00;;;;;;;;5012898;28;45567;-68
2022/06/15 07:29:46;;;;;;;;;11.67;10.00;;;;;;;;5015379;28;45486;-69
2022/06/15 07:32:12;;;;;;;;;11.75;9.00;;;;;;;;5019652;28;45491;-69
2022/06/15 07:34:37;;;;;;;;;11.75;11.00;;;;;;;;5016122;28;45195;-69
2022/06/15 07:37:02;;;;;;;;;9.25;7.25;;;;;;;;5009104;28;45242;-68
2022/06/15 07:39:28;;;;;;;;;10.00;8.25;;;;;;;;5015031;28;45442;-70
2022/06/15 07:41:54;;;;;;;;;7.00;7.00;;;;;;;;5018929;28;47942;-72
2022/06/15 07:44:20;;;;;;;;;5.25;5.00;;;;;;;;5017870;28;45485;-71
2022/06/15 07:46:45;;;;;;;;;10.00;7.00;;;;;;;;5016851;28;45534;-70
2022/06/15 07:51:59;;;;;;;;;9.00;7.75;;;;;;;;5013113;28;45485;-70
2022/06/15 07:54:25;;;;;;;;;7.50;7.00;;;;;;;;5009252;28;45454;-70
2022/06/15 07:56:51;;;;;;;;;6.50;6.50;;;;;;;;5020621;28;45258;-70
2022/06/15 07:59:16;;;;;;;;;9.25;7.25;;;;;;;;5012786;28;45283;-69
2022/06/15 08:01:42;;;;;;;;;5.50;5.50;;;;;;;;5020043;28;46331;-69
2022/06/15 08:04:08;;;;;;;;;5.80;5.80;;;;;;;;5012411;28;45391;-69
2022/06/15 08:06:34;;;;;;;;;6.50;6.50;;;;;;;;5019547;28;45206;-69
2022/06/15 08:09:00;;;;;;;;;8.60;7.20;;;;;;;;5017858;28;46691;-69
2022/06/15 08:11:25;;;;;;;;;5.00;5.00;;;;;;;;5020241;28;46313;-67
2022/06/15 08:13:50;;;;;;;;;9.50;6.00;;;;;;;;5018216;28;45402;-68
2022/06/15 08:16:17;;;;;;;;;5.00;4.50;;;;;;;;5019777;28;45411;-69
2022/06/15 08:18:46;;;;;;;;;6.20;4.20;;;;;;;;5016169;28;45453;-68
2022/06/15 08:21:19;;;;;;;;;5.60;5.00;;;;;;;;5019641;28;46304;-69
2022/06/15 08:23:46;;;;;;;;;6.60;6.60;;;;;;;;5011375;28;45257;-69
2022/06/15 08:26:13;;;;;;;;;5.60;5.60;;;;;;;;5018851;28;45237;-69
2022/06/15 08:28:41;;;;;;;;;6.00;5.60;;;;;;;;5014836;28;45628;-69
2022/06/15 08:31:06;;;;;;;;;6.60;6.60;;;;;;;;5019717;28;45572;-69
2022/06/15 08:33:32;;;;;;;;;7.75;7.00;;;;;;;;5017805;28;45433;-68
2022/06/15 08:35:57;;;;;;;;;5.75;5.00;;;;;;;;5014878;28;45329;-69
2022/06/15 08:38:23;;;;;;;;;5.25;5.00;;;;;;;;5016792;28;45849;-69
2022/06/15 08:40:54;;;;;;;;;6.00;5.60;;;;;;;;5018504;28;47396;-69
2022/06/15 08:43:25;;;;;;;;;6.00;5.00;;;;;;;;5014949;28;45365;-69
2022/06/15 08:45:52;;;;;;;;;7.40;7.40;;;;;;;;5020034;28;45470;-68
2022/06/15 08:48:36;;;;;;;;;8.00;6.60;;;;;;;;5016133;28;45480;-69
2022/06/15 08:51:20;;;;;;;;;9.60;9.00;;;;;;;;5014415;28;45307;-69
2022/06/15 08:53:50;;;;;;;;;9.40;7.20;;;;;;;;5008812;28;45427;-71
2022/06/15 08:56:32;;;;;;;;;6.40;5.80;;;;;;;;5018244;28;45241;-69
2022/06/15 08:58:57;;;;;;;;;8.80;7.00;;;;;;;;5012415;28;45317;-69
2022/06/15 09:01:38;;;;;;;;;6.50;6.50;;;;;;;;5018872;28;45335;-69
2022/06/15 09:04:18;;;;;;;;;5.60;5.60;;;;;;;;5013759;28;45434;-69
2022/06/15 09:06:49;;;;;;;;;5.20;5.20;;;;;;;;5010090;28;45332;-69
2022/06/15 09:09:17;;;;;;;;;5.40;5.40;;;;;;;;5013651;28;45574;-69
2022/06/15 09:12:49;;;;;;;;;7.40;6.40;;;;;;;;5019435;28;46512;-69
2022/06/15 09:15:03;;;;;;;;;5.20;5.20;;;;;;;;5014293;28;45430;-68
2022/06/15 09:17:29;;;;;;;;;8.80;6.00;;;;;;;;5008213;28;45524;-68
2022/06/15 09:19:54;;;;;;;;;6.75;6.75;;;;;;;;5015055;28;45471;-69
2022/06/15 09:22:27;;;;;;;;;4.75;4.50;;;;;;;;5017289;28;46522;-69
2022/06/15 09:24:56;;;;;;;;;5.00;5.00;;;;;;;;5016382;28;45427;-69
2022/06/15 09:27:44;;;;;;;;;8.00;5.80;;;;;;;;5017450;28;45316;-69
2022/06/15 09:30:17;;;;;;;;;6.00;5.00;;;;;;;;5015070;28;45439;-69
2022/06/15 09:32:47;;;;;;;;;5.20;4.20;;;;;;;;4999918;28;45692;-70
2022/06/15 09:35:16;;;;;;;;;6.00;6.00;;;;;;;;5013849;28;45467;-69
2022/06/15 09:37:42;;;;;;;;;6.20;5.00;;;;;;;;5016689;28;45336;-69
2022/06/15 09:40:08;;;;;;;;;4.40;4.40;;;;;;;;5015367;28;45542;-69
2022/06/15 09:42:52;;;;;;;;;7.00;6.00;;;;;;;;5016857;28;45534;-69
2022/06/15 09:45:43;;;;;;;;;6.20;6.20;;;;;;;;5011672;28;45242;-69
2022/06/15 09:48:19;;;;;;;;;6.80;5.00;;;;;;;;5013757;28;45301;-68
2022/06/15 09:50:57;;;;;;;;;7.80;6.00;;;;;;;;5011268;28;45301;-68
2022/06/15 09:53:40;;;;;;;;;6.60;5.60;;;;;;;;5010820;28;45164;-68
2022/06/15 09:56:09;;;;;;;;;5.80;5.80;;;;;;;;5018635;28;45292;-69
2022/06/15 09:58:46;;;;;;;;;8.20;5.60;;;;;;;;5014603;28;45385;-68
2022/06/15 10:01:12;;;;;;;;;6.40;6.00;;;;;;;;5018246;28;45292;-68
2022/06/15 10:03:39;;;;;;;;;4.75;4.75;;;;;;;;5012752;28;45462;-68
2022/06/15 10:06:25;;;;;;;;;5.60;5.60;;;;;;;;5018321;28;45355;-68
2022/06/15 10:08:50;;;;;;;;;5.00;4.00;;;;;;;;5012174;28;45424;-68
2022/06/15 10:11:17;;;;;;;;;5.50;5.25;;;;;;;;5018444;28;45351;-69
2022/06/15 10:13:43;;;;;;;;;5.40;5.00;;;;;;;;5011982;28;46410;-69
2022/06/15 10:16:14;;;;;;;;;5.20;5.20;;;;;;;;5009382;28;45488;-68
2022/06/15 10:18:44;;;;;;;;;6.00;6.00;;;;;;;;5012637;28;45419;-69
2022/06/15 10:21:18;;;;;;;;;7.60;5.40;;;;;;;;5016616;28;45970;-68
2022/06/15 10:23:47;;;;;;;;;6.40;5.20;;;;;;;;5012540;28;46209;-68
2022/06/15 10:26:27;;;;;;;;;2.80;2.80;;;;;;;;5018191;28;45285;-68
2022/06/15 10:28:52;;;;;;;;;5.00;5.00;;;;;;;;5018242;28;45279;-68
2022/06/15 10:31:23;;;;;;;;;9.50;5.25;;;;;;;;5020227;28;46916;-67
2022/06/15 10:33:49;;;;;;;;;6.60;5.60;;;;;;;;5018957;28;48360;-67
2022/06/15 10:36:38;;;;;;;;;6.00;5.00;;;;;;;;5020172;28;45525;-67
2022/06/15 10:39:03;;;;;;;;;5.00;5.00;;;;;;;;5015702;28;45371;-67
2022/06/15 10:41:46;;;;;;;;;5.25;5.25;;;;;;;;5021322;28;45206;-69
2022/06/15 10:44:29;;;;;;;;;6.40;5.80;;;;;;;;5016534;28;47145;-69
2022/06/15 10:47:05;;;;;;;;;9.80;7.00;;;;;;;;5021470;28;45332;-69
2022/06/15 10:49:33;;;;;;;;;6.80;5.60;;;;;;;;5017903;28;45328;-69
2022/06/15 10:51:59;;;;;;;;;6.60;6.00;;;;;;;;5021240;28;45738;-69
2022/06/15 10:54:27;;;;;;;;;6.00;6.00;;;;;;;;5010220;28;46273;-69
2022/06/15 11:02:37;;;;;;;;;6.00;6.00;;;;;;;;5020306;28;45246;-68
2022/06/15 11:05:08;;;;;;;;;8.60;6.80;;;;;;;;5011655;28;48038;-69
2022/06/15 11:07:40;;;;;;;;;6.60;6.60;;;;;;;;5014734;28;45359;-69
2022/06/15 11:10:05;;;;;;;;;9.20;7.20;;;;;;;;5017385;28;45429;-69
2022/06/15 11:12:34;;;;;;;;;5.50;5.50;;;;;;;;5017770;28;46034;-69
2022/06/15 11:15:05;;;;;;;;;6.80;6.80;;;;;;;;5011469;28;45650;-69
2022/06/15 11:20:19;;;;;;;;;9.40;7.40;;;;;;;;5016104;28;45341;-69
2022/06/15 11:22:47;;;;;;;;;6.25;6.25;;;;;;;;5018591;28;45506;-69
2022/06/15 11:25:15;;;;;;;;;9.20;6.80;;;;;;;;5020811;28;46121;-69
2022/06/15 11:27:42;;;;;;;;;7.40;7.00;;;;;;;;5018963;28;45329;-67
2022/06/15 11:30:28;;;;;;;;;7.20;5.60;;;;;;;;5017927;28;45284;-69
2022/06/15 11:32:59;;;;;;;;;5.60;5.60;;;;;;;;5016357;28;45549;-69
2022/06/15 11:35:24;;;;;;;;;6.40;6.40;;;;;;;;5016309;28;45264;-69
2022/06/15 11:37:55;;;;;;;;;5.75;5.75;;;;;;;;5017657;28;45317;-69
2022/06/15 11:40:24;;;;;;;;;6.60;6.00;;;;;;;;5018282;28;45380;-69
2022/06/15 11:42:53;;;;;;;;;7.80;6.80;;;;;;;;5016708;28;45957;-69
2022/06/15 11:45:21;;;;;;;;;6.60;5.40;;;;;;;;5018857;28;45566;-69
2022/06/15 11:47:53;;;;;;;;;3.40;3.40;;;;;;;;5018273;28;45352;-69
2022/06/15 11:50:31;;;;;;;;;6.60;6.60;;;;;;;;5011198;28;45281;-69
2022/06/15 11:52:59;;;;;;;;;6.40;6.40;;;;;;;;5016571;28;45437;-69
2022/06/15 11:55:28;;;;;;;;;9.20;8.40;;;;;;;;5020059;28;46256;-69
2022/06/15 11:58:20;;;;;;;;;7.40;7.40;;;;;;;;5016899;28;45451;-68
2022/06/15 12:00:54;;;;;;;;;7.80;6.60;;;;;;;;5013463;28;45456;-68
2022/06/15 12:03:31;;;;;;;;;8.20;8.20;;;;;;;;5017165;28;45423;-69
2022/06/15 12:06:15;;;;;;;;;9.20;8.80;;;;;;;;5019917;28;45337;-69
2022/06/15 12:08:52;;;;;;;;;8.80;8.80;;;;;;;;5013735;28;45422;-69
2022/06/15 12:14:07;;;;;;;;;7.60;7.60;;;;;;;;5013539;28;45400;-69
2022/06/15 12:16:40;;;;;;;;;7.40;7.40;;;;;;;;5018750;28;46601;-69
2022/06/15 12:19:12;;;;;;;;;9.20;8.60;;;;;;;;5013426;28;45470;-69
2022/06/15 12:21:47;;;;;;;;;6.00;5.80;;;;;;;;5019091;28;45385;-69
2022/06/15 12:24:15;;;;;;;;;6.00;4.40;;;;;;;;5013361;28;45345;-69
2022/06/15 12:26:44;;;;;;;;;7.80;7.20;;;;;;;;5019755;28;46117;-69
2022/06/15 12:29:29;;;;;;;;;7.20;7.20;;;;;;;;5013733;28;45354;-69
2022/06/15 12:34:58;;;;;;;;;7.20;7.00;;;;;;;;5016724;28;45252;-69
2022/06/15 12:37:41;;;;;;;;;7.00;7.00;;;;;;;;5018669;28;45885;-69
2022/06/15 12:40:10;;;;;;;;;8.00;7.60;;;;;;;;5017240;28;45266;-69
2022/06/15 12:42:36;;;;;;;;;8.80;7.00;;;;;;;;5017788;28;45455;-69
2022/06/15 12:45:07;;;;;;;;;8.60;7.00;;;;;;;;5019244;28;45494;-69
2022/06/15 12:47:33;;;;;;;;;6.60;6.60;;;;;;;;5017846;28;46193;-68
2022/06/15 12:50:01;;;;;;;;;8.20;8.00;;;;;;;;5010633;28;45289;-69
2022/06/15 12:52:36;;;;;;;;;7.00;7.00;;;;;;;;5016621;28;45021;-69
2022/06/15 12:55:10;;;;;;;;;10.00;8.00;;;;;;;;5017450;28;45340;-69
2022/06/15 12:57:56;;;;;;;;;8.20;8.20;;;;;;;;5017927;28;46118;-69
2022/06/15 13:00:21;;;;;;;;;9.20;7.20;;;;;;;;5016746;28;45227;-69
2022/06/15 13:03:10;;;;;;;;;7.75;7.75;;;;;;;;5017655;28;45299;-69
2022/06/15 13:05:38;;;;;;;;;6.60;5.00;;;;;;;;5013941;28;45439;-68
2022/06/15 13:08:16;;;;;;;;;8.80;7.20;;;;;;;;5017009;28;46024;-69
2022/06/15 13:10:53;;;;;;;;;7.00;7.00;;;;;;;;5005386;28;45197;-68
2022/06/15 13:13:39;;;;;;;;;7.00;7.00;;;;;;;;5016770;28;45487;-68
2022/06/15 13:16:09;;;;;;;;;7.80;7.00;;;;;;;;5013246;28;45264;-69
2022/06/15 13:18:39;;;;;;;;;8.40;6.80;;;;;;;;5010559;28;46295;-69
2022/06/15 13:21:04;;;;;;;;;6.20;6.00;;;;;;;;5018758;28;45531;-69
2022/06/15 13:23:32;;;;;;;;;5.00;4.25;;;;;;;;5015635;28;45418;-68
2022/06/15 13:26:09;;;;;;;;;9.20;7.60;;;;;;;;5019070;28;45513;-68
2022/06/15 13:28:37;;;;;;;;;7.60;6.80;;;;;;;;5013999;28;45724;-69
2022/06/15 13:31:05;;;;;;;;;5.60;5.60;;;;;;;;5015422;28;45352;-69
2022/06/15 13:33:45;;;;;;;;;8.00;6.40;;;;;;;;5013997;28;45511;-69
2022/06/15 13:36:11;;;;;;;;;7.20;7.00;;;;;;;;5015424;28;45248;-69
2022/06/15 13:38:37;;;;;;;;;4.75;4.50;;;;;;;;5017083;28;47796;-69
2022/06/15 13:41:02;;;;;;;;;5.80;5.80;;;;;;;;5018671;28;45280;-69
2022/06/15 13:43:51;;;;;;;;;8.00;7.00;;;;;;;;5017207;28;45719;-69
2022/06/15 13:46:26;;;;;;;;;7.20;7.20;;;;;;;;5017809;28;45516;-69
2022/06/15 13:48:53;;;;;;;;;4.60;4.00;;;;;;;;5014915;28;46368;-69
2022/06/15 13:51:34;;;;;;;;;6.00;6.00;;;;;;;;5018527;28;45251;-69
2022/06/15 13:54:12;;;;;;;;;5.80;5.80;;;;;;;;5009690;28;45350;-69
2022/06/15 13:56:46;;;;;;;;;5.40;5.40;;;;;;;;5017542;28;46828;-69
2022/06/15 13:59:20;;;;;;;;;7.60;7.60;;;;;;;;5012709;28;45419;-69
2022/06/15 14:01:56;;;;;;;;;8.00;6.80;;;;;;;;5008985;28;45274;-69
2022/06/15 14:04:40;;;;;;;;;6.00;6.00;;;;;;;;5008588;28;45467;-69
2022/06/15 14:07:23;;;;;;;;;7.60;6.00;;;;;;;;5021774;28;46699;-69
2022/06/15 14:09:51;;;;;;;;;8.00;7.00;;;;;;;;5017829;28;46273;-69
2022/06/15 14:12:17;;;;;;;;;7.00;6.00;;;;;;;;5021345;28;45333;-69
2022/06/15 14:14:45;;;;;;;;;7.25;6.50;;;;;;;;5016391;28;45352;-69
2022/06/15 14:17:19;;;;;;;;;5.00;5.00;;;;;;;;5021599;28;45285;-69
2022/06/15 14:19:47;;;;;;;;;8.00;5.80;;;;;;;;5011001;28;46954;-69
2022/06/15 14:22:18;;;;;;;;;7.80;6.60;;;;;;;;5019319;28;45545;-69
2022/06/15 14:24:44;;;;;;;;;5.40;5.40;;;;;;;;4995899;28;45480;-69
2022/06/15 14:27:22;;;;;;;;;5.50;5.50;;;;;;;;5020350;28;45596;-69
2022/06/15 14:29:48;;;;;;;;;5.20;5.20;;;;;;;;5017085;28;45388;-68
2022/06/15 14:32:37;;;;;;;;;5.50;4.25;;;;;;;;5015770;28;45387;-69
2022/06/15 14:35:23;;;;;;;;;4.00;4.00;;;;;;;;5021184;28;45372;-70
2022/06/15 14:37:52;;;;;;;;;5.80;4.60;;;;;;;;5017428;28;45986;-68
2022/06/15 14:40:25;;;;;;;;;8.60;7.00;;;;;;;;5021259;28;46228;-69
2022/06/15 14:42:54;;;;;;;;;5.00;5.00;;;;;;;;5019443;28;45376;-69
2022/06/15 14:45:20;;;;;;;;;6.60;6.60;;;;;;;;5021525;28;45347;-68
2022/06/15 14:47:53;;;;;;;;;5.60;5.60;;;;;;;;5019255;28;45433;-69
2022/06/15 14:50:19;;;;;;;;;6.80;6.40;;;;;;;;5013217;28;46396;-69
2022/06/15 14:52:44;;;;;;;;;8.75;6.50;;;;;;;;5018164;28;45346;-69
2022/06/15 14:55:17;;;;;;;;;5.25;5.25;;;;;;;;5014082;28;45359;-69
2022/06/15 14:57:42;;;;;;;;;5.40;5.40;;;;;;;;5019662;28;45582;-69
2022/06/15 15:00:18;;;;;;;;;6.00;4.75;;;;;;;;5020453;28;45485;-69
2022/06/15 15:02:47;;;;;;;;;5.80;4.80;;;;;;;;5017406;28;47457;-69
2022/06/15 15:05:12;;;;;;;;;6.20;6.00;;;;;;;;5020228;28;45375;-69
2022/06/15 15:10:29;;;;;;;;;4.60;4.60;;;;;;;;5020409;28;45562;-69
2022/06/15 15:13:12;;;;;;;;;6.00;5.80;;;;;;;;5017967;28;45436;-68
2022/06/15 15:15:44;;;;;;;;;5.00;5.00;;;;;;;;5018839;28;45441;-69
2022/06/15 15:18:12;;;;;;;;;6.00;6.00;;;;;;;;5015791;28;45461;-69